createdAt,value
2019-03-06T00:01:54.021Z,99.90
2019-03-06T00:04:27.765Z,99.90
2019-03-06T00:06:58.846Z,99.90
2019-03-06T00:09:29.876Z,99.90
2019-03-06T00:12:00.933Z,99.90
2019-03-06T00:14:31.999Z,99.90
2019-03-06T00:17:03.139Z,99.90
2019-03-06T00:19:34.266Z,99.90
2019-03-06T00:22:06.977Z,99.90
2019-03-06T00:24:38.048Z,99.90
2019-03-06T00:27:09.239Z,99.90
2019-03-06T00:29:40.309Z,99.90
2019-03-06T00:32:11.351Z,99.90
2019-03-06T00:34:43.416Z,99.90
2019-03-06T00:37:14.721Z,99.90
2019-03-06T00:39:47.354Z,99.90
2019-03-06T00:42:18.387Z,99.90
2019-03-06T00:44:49.454Z,99.90
2019-03-06T00:47:20.488Z,99.90
2019-03-06T00:49:51.548Z,99.90
2019-03-06T00:52:22.582Z,99.90
2019-03-06T00:54:53.639Z,99.90
2019-03-06T00:57:24.712Z,99.90
2019-03-06T00:59:55.842Z,99.90
2019-03-06T01:02:27.008Z,99.90
2019-03-06T01:04:58.042Z,99.90
2019-03-06T01:07:29.132Z,99.90
2019-03-06T01:10:00.350Z,99.90
2019-03-06T01:12:31.495Z,99.90
2019-03-06T01:15:03.829Z,99.90
2019-03-06T01:17:34.972Z,99.90
2019-03-06T01:20:09.848Z,99.90
2019-03-06T01:22:41.021Z,99.90
2019-03-06T01:25:20.154Z,99.90
2019-03-06T01:27:51.248Z,99.90
2019-03-06T01:30:26.801Z,99.90
2019-03-06T01:33:03.520Z,99.90
2019-03-06T01:35:44.436Z,99.90
2019-03-06T01:38:33.318Z,99.90
2019-03-06T01:41:04.054Z,99.90
2019-03-06T01:43:36.776Z,99.90
2019-03-06T01:46:07.842Z,99.90
2019-03-06T01:48:38.895Z,99.90
2019-03-06T01:51:11.664Z,99.90
2019-03-06T01:53:42.854Z,99.90
2019-03-06T01:56:13.928Z,99.90
2019-03-06T01:58:44.979Z,99.90
2019-03-06T02:01:16.042Z,99.90
2019-03-06T02:03:47.082Z,99.90
2019-03-06T02:06:18.449Z,99.90
2019-03-06T02:08:50.095Z,99.90
2019-03-06T02:11:21.190Z,99.90
2019-03-06T02:13:52.229Z,99.90
2019-03-06T02:16:23.297Z,99.90
2019-03-06T02:18:54.344Z,99.90
2019-03-06T02:21:25.503Z,99.90
2019-03-06T02:23:56.542Z,99.90
2019-03-06T02:26:27.808Z,99.90
2019-03-06T02:28:58.850Z,99.90
2019-03-06T02:31:29.918Z,99.90
2019-03-06T02:34:00.991Z,99.90
2019-03-06T02:36:32.088Z,99.90
2019-03-06T02:39:04.600Z,99.90
2019-03-06T02:41:36.745Z,99.90
2019-03-06T02:44:07.816Z,99.90
2019-03-06T02:46:39.020Z,99.90
2019-03-06T02:49:23.329Z,99.90
2019-03-06T02:51:54.507Z,99.90
2019-03-06T02:54:25.594Z,99.90
2019-03-06T02:56:56.705Z,99.90
2019-03-06T02:59:29.685Z,99.90
2019-03-06T03:02:11.329Z,99.90
2019-03-06T03:04:44.163Z,99.90
2019-03-06T03:07:15.206Z,99.90
2019-03-06T03:09:46.277Z,99.90
2019-03-06T03:12:18.861Z,99.90
2019-03-06T03:14:49.938Z,99.90
2019-03-06T03:17:20.985Z,99.90
2019-03-06T03:19:52.237Z,99.90
2019-03-06T03:22:23.378Z,99.90
2019-03-06T03:24:54.430Z,99.90
2019-03-06T03:27:25.521Z,99.90
2019-03-06T03:29:56.561Z,99.90
2019-03-06T03:32:45.049Z,99.90
2019-03-06T03:35:16.107Z,99.90
2019-03-06T03:37:47.257Z,99.90
2019-03-06T03:40:19.356Z,99.90
2019-03-06T03:42:50.419Z,99.90
2019-03-06T03:45:21.468Z,99.90
2019-03-06T03:47:52.543Z,99.90
2019-03-06T03:50:23.578Z,99.90
2019-03-06T03:52:54.653Z,99.90
2019-03-06T03:55:25.702Z,99.90
2019-03-06T03:57:56.829Z,99.90
2019-03-06T04:00:28.058Z,99.90
2019-03-06T04:02:59.456Z,99.90
2019-03-06T04:05:30.553Z,99.90
2019-03-06T04:08:01.628Z,99.90
2019-03-06T04:10:32.666Z,99.90
2019-03-06T04:13:03.741Z,99.90
2019-03-06T04:15:34.789Z,99.90
2019-03-06T04:18:05.983Z,99.90
2019-03-06T04:20:37.026Z,99.90
2019-03-06T04:23:08.099Z,99.90
2019-03-06T04:25:40.365Z,99.90
2019-03-06T04:28:11.478Z,99.90
2019-03-06T04:30:42.548Z,99.90
2019-03-06T04:33:13.590Z,99.90
2019-03-06T04:35:44.660Z,99.90
2019-03-06T04:38:15.695Z,99.90
2019-03-06T04:40:46.768Z,99.90
2019-03-06T04:43:17.806Z,99.90
2019-03-06T04:45:48.875Z,99.90
2019-03-06T04:48:19.911Z,99.90
2019-03-06T04:50:50.984Z,99.90
2019-03-06T04:53:22.021Z,99.90
2019-03-06T04:55:53.097Z,99.90
2019-03-06T04:58:26.260Z,99.90
2019-03-06T05:00:57.175Z,99.90
2019-03-06T05:03:28.219Z,99.90
2019-03-06T05:05:59.294Z,99.90
2019-03-06T05:08:30.333Z,99.90
2019-03-06T05:11:01.478Z,99.90
2019-03-06T05:13:32.548Z,99.90
2019-03-06T05:16:03.590Z,99.90
2019-03-06T05:18:36.222Z,99.90
2019-03-06T05:21:07.260Z,99.90
2019-03-06T05:23:39.336Z,99.90
2019-03-06T05:26:10.377Z,99.90
2019-03-06T05:28:41.450Z,99.90
2019-03-06T05:31:13.763Z,99.90
2019-03-06T05:33:44.836Z,99.90
2019-03-06T05:36:26.200Z,99.90
2019-03-06T05:39:09.365Z,99.90
2019-03-06T05:41:40.529Z,99.90
2019-03-06T05:44:11.603Z,99.90
2019-03-06T05:46:42.715Z,99.90
2019-03-06T05:49:13.965Z,99.90
2019-03-06T05:51:45.081Z,99.90
2019-03-06T05:54:16.148Z,99.90
2019-03-06T05:56:48.465Z,99.90
2019-03-06T05:59:19.874Z,99.90
2019-03-06T06:01:50.981Z,99.90
2019-03-06T06:04:22.074Z,99.90
2019-03-06T06:06:53.204Z,99.90
2019-03-06T06:09:24.242Z,99.90
2019-03-06T06:11:55.313Z,99.90
2019-03-06T06:14:26.347Z,99.90
2019-03-06T06:16:57.419Z,99.90
2019-03-06T06:19:28.459Z,99.90
2019-03-06T06:22:13.160Z,99.90
2019-03-06T06:24:44.192Z,99.90
2019-03-06T06:27:15.271Z,99.90
2019-03-06T06:29:46.583Z,99.90
2019-03-06T06:32:17.651Z,99.90
2019-03-06T06:34:48.695Z,99.90
2019-03-06T06:37:19.766Z,99.90
2019-03-06T06:39:50.809Z,99.90
2019-03-06T06:42:21.880Z,99.90
2019-03-06T06:44:52.923Z,99.90
2019-03-06T06:47:23.991Z,99.90
2019-03-06T06:49:55.055Z,99.90
2019-03-06T06:52:55.355Z,99.90
2019-03-06T06:55:39.916Z,99.90
2019-03-06T06:58:20.851Z,99.90
2019-03-06T07:01:09.356Z,99.90
2019-03-06T07:04:32.006Z,99.90
2019-03-06T07:07:19.435Z,99.90
2019-03-06T07:10:08.232Z,99.90
2019-03-06T07:12:55.868Z,99.90
2019-03-06T07:15:43.308Z,99.90
2019-03-06T07:18:16.897Z,99.90
2019-03-06T07:21:01.310Z,99.90
2019-03-06T07:23:43.044Z,99.90
2019-03-06T07:26:13.807Z,99.90
2019-03-06T07:28:46.486Z,99.90
2019-03-06T07:31:32.304Z,99.90
2019-03-06T07:34:08.765Z,99.90
2019-03-06T07:36:59.508Z,99.90
2019-03-06T07:39:32.160Z,99.90
2019-03-06T07:42:20.022Z,99.90
2019-03-06T07:45:46.601Z,99.90
2019-03-06T07:48:30.916Z,99.90
2019-03-06T07:51:19.406Z,99.90
2019-03-06T07:54:12.311Z,99.90
2019-03-06T07:57:02.869Z,99.90
2019-03-06T07:59:33.892Z,99.90
2019-03-06T08:02:09.782Z,99.90
2019-03-06T08:04:42.400Z,99.90
2019-03-06T08:07:14.365Z,99.90
2019-03-06T08:09:45.519Z,99.90
2019-03-06T08:12:27.050Z,99.90
2019-03-06T08:15:15.775Z,99.90
2019-03-06T08:17:52.480Z,99.90
2019-03-06T08:20:23.208Z,99.90
2019-03-06T08:22:58.764Z,99.90
2019-03-06T08:25:41.605Z,99.90
2019-03-06T08:28:13.346Z,99.90
2019-03-06T08:30:46.340Z,99.90
2019-03-06T08:33:18.542Z,99.90
2019-03-06T08:35:50.747Z,99.90
2019-03-06T08:38:21.858Z,99.90
2019-03-06T08:40:52.852Z,99.90
2019-03-06T08:43:23.873Z,99.90
2019-03-06T08:45:57.743Z,99.90
2019-03-06T08:48:30.333Z,99.90
2019-03-06T08:51:19.014Z,99.90
2019-03-06T08:53:49.741Z,99.90
2019-03-06T08:56:29.177Z,99.90
2019-03-06T08:59:07.712Z,99.90
2019-03-06T09:01:40.613Z,99.90
2019-03-06T09:04:20.124Z,99.90
2019-03-06T09:06:52.746Z,99.90
2019-03-06T09:09:41.201Z,99.90
2019-03-06T09:12:29.742Z,99.90
2019-03-06T09:15:03.496Z,99.90
2019-03-06T09:17:36.124Z,99.90
2019-03-06T09:20:12.066Z,99.90
2019-03-06T09:22:44.689Z,99.90
2019-03-06T09:25:18.532Z,99.90
2019-03-06T09:27:53.852Z,99.90
2019-03-06T09:30:26.440Z,99.90
2019-03-06T09:33:17.235Z,99.90
2019-03-06T09:35:49.817Z,99.90
2019-03-06T09:38:34.129Z,99.90
2019-03-06T09:41:04.847Z,99.90
2019-03-06T09:43:37.518Z,99.90
2019-03-06T09:46:26.179Z,99.90
2019-03-06T09:48:59.798Z,99.90
2019-03-06T09:51:32.391Z,99.90
2019-03-06T09:54:08.944Z,99.90
2019-03-06T09:56:41.545Z,99.90
2019-03-06T09:59:16.917Z,99.90
2019-03-06T10:01:52.465Z,99.90
2019-03-06T10:04:27.843Z,99.90
2019-03-06T10:07:03.670Z,99.90
2019-03-06T10:09:42.023Z,99.90
2019-03-06T10:12:14.634Z,99.90
2019-03-06T10:15:03.232Z,99.90
2019-03-06T10:17:35.062Z,99.90
2019-03-06T10:20:14.454Z,99.90
2019-03-06T10:22:45.770Z,99.90
2019-03-06T10:25:16.834Z,99.90
2019-03-06T10:27:47.947Z,99.90
2019-03-06T10:30:19.625Z,99.90
2019-03-06T10:32:50.787Z,92.30
2019-03-06T10:35:21.919Z,70.50
2019-03-06T10:37:53.233Z,56.80
2019-03-06T10:40:24.372Z,55.00
2019-03-06T10:42:55.587Z,52.70
2019-03-06T10:45:26.671Z,50.30
2019-03-06T10:47:57.993Z,48.00
2019-03-06T10:50:31.229Z,47.80
2019-03-06T10:53:01.939Z,47.60
2019-03-06T10:55:33.027Z,46.30
2019-03-06T10:58:04.747Z,45.60
2019-03-06T11:00:46.306Z,43.90
2019-03-06T11:03:17.521Z,42.10
2019-03-06T11:05:49.406Z,41.90
2019-03-06T11:08:21.231Z,40.30
2019-03-06T11:10:52.316Z,38.60
2019-03-06T11:13:23.445Z,39.10
2019-03-06T11:15:55.886Z,38.60
2019-03-06T11:18:27.151Z,38.90
2019-03-06T11:20:58.330Z,37.90
2019-03-06T11:23:29.439Z,40.80
2019-03-06T11:26:01.930Z,40.60
2019-03-06T11:28:41.080Z,41.20
2019-03-06T11:31:12.556Z,41.50
2019-03-06T11:33:43.880Z,43.30
2019-03-06T11:36:14.984Z,42.90
2019-03-06T11:38:46.035Z,43.60
2019-03-06T11:41:17.111Z,45.40
2019-03-06T11:43:48.148Z,44.80
2019-03-06T11:46:20.213Z,45.40
2019-03-06T11:48:51.338Z,44.60
2019-03-06T11:51:22.553Z,45.30
2019-03-06T11:53:53.739Z,46.90
2019-03-06T11:56:24.773Z,46.60
2019-03-06T11:58:56.058Z,45.30
2019-03-06T12:01:28.979Z,45.70
2019-03-06T12:04:00.211Z,46.80
2019-03-06T12:06:31.298Z,46.60
2019-03-06T12:09:02.314Z,47.70
2019-03-06T12:11:35.230Z,48.70
2019-03-06T12:14:07.614Z,47.40
2019-03-06T12:16:41.859Z,48.30
2019-03-06T12:19:11.359Z,49.80
2019-03-06T12:21:42.474Z,50.20
2019-03-06T12:24:14.362Z,49.30
2019-03-06T12:26:45.404Z,48.60
2019-03-06T12:29:16.491Z,49.30
2019-03-06T12:31:47.536Z,48.90
2019-03-06T12:34:18.811Z,49.00
2019-03-06T12:36:49.886Z,48.30
2019-03-06T12:39:20.892Z,50.20
2019-03-06T12:41:51.934Z,51.90
2019-03-06T12:44:22.979Z,51.30
2019-03-06T12:46:54.143Z,51.40
2019-03-06T12:49:25.475Z,52.40
2019-03-06T12:51:56.521Z,50.30
2019-03-06T12:54:27.555Z,50.40
2019-03-06T12:56:58.572Z,52.30
2019-03-06T12:59:31.237Z,52.00
2019-03-06T13:02:02.465Z,51.30
2019-03-06T13:04:33.497Z,50.10
2019-03-06T13:07:04.504Z,48.80
2019-03-06T13:09:37.559Z,49.10
2019-03-06T13:12:08.247Z,49.40
2019-03-06T13:14:39.363Z,49.20
2019-03-06T13:17:10.482Z,50.70
2019-03-06T13:19:41.594Z,51.90
2019-03-06T13:22:12.785Z,53.70
2019-03-06T13:24:44.103Z,52.00
2019-03-06T13:27:15.148Z,51.00
2019-03-06T13:29:47.271Z,49.50
2019-03-06T13:32:18.738Z,51.50
2019-03-06T13:34:50.759Z,52.40
2019-03-06T13:37:22.532Z,53.40
2019-03-06T13:39:53.582Z,54.10
2019-03-06T13:42:26.580Z,54.00
2019-03-06T13:44:57.428Z,53.80
2019-03-06T13:47:28.544Z,55.20
2019-03-06T13:49:59.633Z,52.90
2019-03-06T13:52:30.748Z,53.20
2019-03-06T13:55:01.838Z,53.10
2019-03-06T13:57:32.923Z,51.70
2019-03-06T14:00:12.111Z,53.40
2019-03-06T14:02:43.233Z,52.80
2019-03-06T14:05:16.028Z,53.50
2019-03-06T14:07:55.673Z,52.50
2019-03-06T14:10:27.105Z,53.70
2019-03-06T14:12:58.324Z,53.80
2019-03-06T14:15:29.519Z,52.30
2019-03-06T14:18:00.836Z,52.60
2019-03-06T14:20:31.869Z,53.60
2019-03-06T14:23:02.891Z,52.60
2019-03-06T14:25:34.707Z,53.60
2019-03-06T14:28:05.802Z,51.50
2019-03-06T14:30:39.523Z,52.70
2019-03-06T14:33:10.531Z,54.60
2019-03-06T14:35:41.682Z,54.20
2019-03-06T14:38:12.765Z,54.30
2019-03-06T14:40:44.784Z,54.20
2019-03-06T14:43:15.867Z,54.10
2019-03-06T14:45:47.119Z,54.50
2019-03-06T14:48:18.266Z,54.70
2019-03-06T14:50:49.301Z,55.80
2019-03-06T14:53:20.390Z,54.50
2019-03-06T14:55:51.432Z,53.90
2019-03-06T14:58:22.514Z,54.60
2019-03-06T15:00:53.594Z,54.80
2019-03-06T15:03:24.802Z,56.30
2019-03-06T15:05:55.939Z,56.20
2019-03-06T15:08:28.027Z,56.40
2019-03-06T15:10:59.137Z,56.60
2019-03-06T15:13:30.261Z,58.10
2019-03-06T15:16:02.324Z,59.80
2019-03-06T15:18:33.462Z,60.40
2019-03-06T15:21:04.499Z,61.30
2019-03-06T15:23:36.543Z,61.50
2019-03-06T15:26:07.667Z,62.30
2019-03-06T15:28:38.731Z,62.30
2019-03-06T15:31:10.162Z,62.90
2019-03-06T15:33:41.388Z,63.50
2019-03-06T15:36:12.500Z,64.80
2019-03-06T15:38:43.654Z,65.10
2019-03-06T15:41:14.773Z,66.20
2019-03-06T15:43:45.921Z,67.10
2019-03-06T15:46:16.967Z,67.60
2019-03-06T15:48:48.110Z,68.70
2019-03-06T15:51:19.225Z,69.80
2019-03-06T15:53:50.368Z,71.70
2019-03-06T15:56:21.476Z,73.30
2019-03-06T15:58:54.376Z,75.00
2019-03-06T16:01:25.208Z,77.00
2019-03-06T16:03:56.562Z,79.80
2019-03-06T16:06:27.662Z,82.50
2019-03-06T16:08:58.800Z,84.90
2019-03-06T16:11:29.837Z,87.20
2019-03-06T16:14:00.940Z,89.20
2019-03-06T16:16:32.289Z,91.10
2019-03-06T16:19:03.359Z,91.80
2019-03-06T16:21:34.489Z,93.40
2019-03-06T16:24:05.829Z,95.30
2019-03-06T16:26:37.892Z,97.10
2019-03-06T16:29:09.112Z,98.40
2019-03-06T16:31:40.172Z,99.90
2019-03-06T16:34:11.279Z,99.90
2019-03-06T16:36:42.422Z,99.90
2019-03-06T16:39:13.675Z,99.90
2019-03-06T16:41:45.440Z,99.90
2019-03-06T16:44:16.481Z,99.90
2019-03-06T16:46:47.563Z,99.90
2019-03-06T16:49:18.708Z,99.90
2019-03-06T16:51:49.744Z,99.90
2019-03-06T16:54:21.410Z,99.90
2019-03-06T16:56:52.449Z,99.90
2019-03-06T16:59:23.594Z,99.90
2019-03-06T17:01:54.870Z,99.90
2019-03-06T17:04:25.990Z,99.90
2019-03-06T17:06:58.107Z,99.90
2019-03-06T17:09:29.255Z,99.90
2019-03-06T17:12:00.286Z,99.90
2019-03-06T17:14:31.356Z,99.90
2019-03-06T17:17:02.531Z,99.90
2019-03-06T17:19:33.661Z,99.90
2019-03-06T17:22:04.767Z,99.90
2019-03-06T17:24:35.898Z,99.90
2019-03-06T17:27:07.006Z,99.90
2019-03-06T17:29:38.070Z,99.90
2019-03-06T17:32:09.184Z,99.90
2019-03-06T17:34:40.313Z,99.90
2019-03-06T17:37:11.374Z,99.90
2019-03-06T17:39:42.425Z,99.90
2019-03-06T17:42:14.572Z,99.90
2019-03-06T17:44:45.604Z,99.90
2019-03-06T17:47:16.744Z,99.90
2019-03-06T17:49:48.876Z,99.90
2019-03-06T17:52:20.021Z,99.90
2019-03-06T17:54:51.115Z,99.90
2019-03-06T17:57:22.247Z,99.90
2019-03-06T17:59:54.361Z,99.90
2019-03-06T18:02:26.586Z,99.90
2019-03-06T18:04:57.741Z,99.90
2019-03-06T18:07:29.074Z,99.90
2019-03-06T18:10:00.225Z,99.90
2019-03-06T18:12:31.438Z,99.90
2019-03-06T18:15:02.477Z,99.90
2019-03-06T18:17:34.596Z,99.90
2019-03-06T18:20:09.158Z,99.90
2019-03-06T18:22:40.259Z,99.90
2019-03-06T18:25:17.591Z,99.90
2019-03-06T18:27:48.830Z,99.90
2019-03-06T18:30:20.824Z,99.90
2019-03-06T18:32:51.996Z,99.90
2019-03-06T18:35:23.753Z,99.90
2019-03-06T18:37:54.929Z,99.90
2019-03-06T18:40:27.160Z,99.90
2019-03-06T18:42:58.295Z,99.90
2019-03-06T18:45:29.397Z,99.90
2019-03-06T18:48:00.454Z,99.90
2019-03-06T18:50:31.487Z,99.90
2019-03-06T18:53:02.521Z,99.90
2019-03-06T18:55:33.651Z,99.90
2019-03-06T18:58:04.782Z,99.90
2019-03-06T19:00:36.023Z,99.90
2019-03-06T19:03:07.057Z,99.90
2019-03-06T19:05:38.207Z,99.90
2019-03-06T19:08:09.302Z,99.90
2019-03-06T19:10:40.567Z,99.90
2019-03-06T19:13:12.444Z,99.90
2019-03-06T19:15:43.673Z,99.90
2019-03-06T19:18:14.783Z,99.90
2019-03-06T19:20:45.919Z,99.90
2019-03-06T19:23:17.129Z,99.90
2019-03-06T19:25:48.171Z,99.90
2019-03-06T19:28:19.372Z,99.90
2019-03-06T19:30:50.413Z,99.90
2019-03-06T19:33:21.569Z,99.90
2019-03-06T19:35:52.858Z,99.90
2019-03-06T19:38:24.255Z,99.90
2019-03-06T19:40:55.327Z,99.90
2019-03-06T19:43:26.462Z,99.90
2019-03-06T19:45:58.581Z,99.90
2019-03-06T19:48:29.915Z,99.90
2019-03-06T19:51:00.949Z,99.90
2019-03-06T19:53:32.097Z,99.90
2019-03-06T19:56:03.215Z,99.90
2019-03-06T19:58:34.341Z,99.90
2019-03-06T20:01:05.555Z,99.90
2019-03-06T20:03:36.694Z,99.90
2019-03-06T20:06:08.901Z,99.90
2019-03-06T20:08:40.032Z,99.90
2019-03-06T20:11:11.134Z,99.90
2019-03-06T20:13:42.270Z,99.90
2019-03-06T20:16:13.328Z,99.90
2019-03-06T20:18:44.437Z,99.90
2019-03-06T20:21:15.504Z,99.90
2019-03-06T20:23:46.662Z,99.90
2019-03-06T20:26:17.805Z,99.90
2019-03-06T20:28:49.020Z,99.90
2019-03-06T20:31:20.165Z,99.90
2019-03-06T20:33:51.200Z,99.90
2019-03-06T20:36:22.338Z,99.90
2019-03-06T20:38:53.367Z,99.90
2019-03-06T20:41:24.734Z,99.90
2019-03-06T20:43:55.853Z,99.90
2019-03-06T20:46:29.342Z,99.90
2019-03-06T20:49:00.450Z,99.90
2019-03-06T20:51:31.600Z,99.90
2019-03-06T20:54:02.707Z,99.90
2019-03-06T20:56:33.959Z,99.90
2019-03-06T20:59:05.078Z,99.90
2019-03-06T21:01:36.457Z,99.90
2019-03-06T21:04:07.600Z,99.90
2019-03-06T21:06:38.902Z,99.90
2019-03-06T21:09:10.124Z,99.90
2019-03-06T21:11:41.542Z,99.90
2019-03-06T21:14:12.692Z,99.90
2019-03-06T21:16:43.796Z,99.90
2019-03-06T21:19:15.917Z,99.90
2019-03-06T21:21:47.042Z,99.90
2019-03-06T21:24:19.179Z,99.90
2019-03-06T21:26:50.277Z,99.90
2019-03-06T21:29:21.414Z,99.90
2019-03-06T21:31:52.522Z,99.90
2019-03-06T21:34:23.653Z,99.90
2019-03-06T21:36:54.757Z,99.90
2019-03-06T21:39:26.198Z,99.90
2019-03-06T21:41:57.313Z,99.90
2019-03-06T21:44:28.437Z,99.90
2019-03-06T21:46:59.545Z,99.90
2019-03-06T21:49:30.679Z,99.90
2019-03-06T21:52:02.000Z,99.90
2019-03-06T21:54:33.056Z,99.90
2019-03-06T21:57:04.227Z,99.90
2019-03-06T21:59:35.341Z,99.90
2019-03-06T22:02:06.663Z,99.90
2019-03-06T22:04:37.769Z,99.90
2019-03-06T22:07:08.902Z,99.90
2019-03-06T22:09:39.936Z,99.90
2019-03-06T22:12:12.080Z,99.90
2019-03-06T22:14:43.136Z,99.90
2019-03-06T22:17:14.301Z,99.90
2019-03-06T22:19:45.392Z,99.90
2019-03-06T22:22:16.445Z,99.90
2019-03-06T22:24:47.483Z,99.90
2019-03-06T22:27:18.601Z,99.30
2019-03-06T22:29:49.727Z,99.00
2019-03-06T22:32:20.755Z,98.40
2019-03-06T22:34:52.184Z,97.90
2019-03-06T22:37:23.294Z,97.70
2019-03-06T22:39:55.439Z,97.50
2019-03-06T22:42:26.750Z,97.60
2019-03-06T22:45:00.802Z,97.40
2019-03-06T22:47:31.917Z,97.30
2019-03-06T22:50:03.057Z,97.40
2019-03-06T22:52:35.207Z,97.60
2019-03-06T22:55:08.355Z,97.60
2019-03-06T22:57:39.452Z,97.50
2019-03-06T23:00:37.401Z,97.10
2019-03-06T23:03:10.163Z,97.20
2019-03-06T23:05:41.217Z,97.00
2019-03-06T23:08:12.629Z,96.20
2019-03-06T23:10:43.687Z,96.40
2019-03-06T23:13:14.781Z,96.40
2019-03-06T23:15:46.107Z,96.30
2019-03-06T23:18:17.124Z,95.90
2019-03-06T23:20:48.189Z,96.30
2019-03-06T23:23:19.211Z,95.80
2019-03-06T23:25:50.356Z,95.40
2019-03-06T23:28:21.425Z,95.20
2019-03-06T23:30:52.523Z,95.30
2019-03-06T23:33:23.578Z,95.20
2019-03-06T23:35:54.598Z,95.00
2019-03-06T23:38:25.660Z,94.90
2019-03-06T23:40:56.759Z,94.60
2019-03-06T23:43:27.815Z,94.60
2019-03-06T23:45:58.917Z,94.20
2019-03-06T23:48:29.973Z,94.10
2019-03-06T23:51:02.645Z,93.80
2019-03-06T23:53:35.271Z,93.90
2019-03-06T23:56:06.295Z,93.60
2019-03-06T23:58:37.363Z,93.20
